Time;durP1;ratioP1;P1;durP2;ratioP2;P2;SDS_P1;SDS_P2;PMS_P1;PMS_P2;Temp;Humidity;BMP_temperature;BMP_pressure;BME280_temperature;BME280_humidity;BME280_pressure;Samples;Min_cycle;Max_cycle;Signal;HPM_P1;HPM_P2
2020/12/12 00:01:00;;;;;;;28.88;6.50;;;19.80;43.70;;;;;;5044965;28;20093;-57
2020/12/12 00:03:28;;;;;;;28.45;6.90;;;19.70;43.60;;;;;;5051294;28;20090;-57
2020/12/12 00:05:55;;;;;;;21.98;6.05;;;19.60;44.00;;;;;;5048666;28;20073;-57
2020/12/12 00:08:22;;;;;;;22.73;6.45;;;19.50;44.10;;;;;;5053880;28;20080;-59
2020/12/12 00:10:49;;;;;;;25.73;6.40;;;19.50;44.30;;;;;;5049772;28;20088;-55
2020/12/12 00:13:15;;;;;;;24.42;6.72;;;19.40;44.70;;;;;;5048647;28;20065;-57
2020/12/12 00:15:45;;;;;;;24.35;7.32;;;19.30;44.70;;;;;;5053620;28;20080;-58
2020/12/12 00:18:11;;;;;;;28.30;7.78;;;19.30;44.90;;;;;;5050953;28;20078;-59
2020/12/12 00:20:37;;;;;;;;;;;19.20;45.40;;;;;;5055253;28;20069;-56
2020/12/12 00:23:04;;;;;;;22.33;6.63;;;19.10;45.90;;;;;;5056426;28;19977;-57
2020/12/12 00:25:31;;;;;;;30.85;6.97;;;19.00;46.40;;;;;;5048203;28;20077;-57
2020/12/12 00:27:57;;;;;;;24.48;7.15;;;19.00;46.60;;;;;;5049035;28;20120;-56
2020/12/12 00:30:23;;;;;;;;;;;18.90;46.60;;;;;;5051120;28;20074;-59
2020/12/12 00:32:50;;;;;;;33.28;8.23;;;18.80;47.00;;;;;;5050240;28;19961;-59
2020/12/12 00:35:16;;;;;;;42.60;9.25;;;18.70;47.40;;;;;;5050660;28;20184;-56
2020/12/12 00:37:43;;;;;;;;;;;18.60;47.80;;;;;;5046772;28;20160;-56
2020/12/12 00:40:09;;;;;;;48.80;11.68;;;18.50;48.10;;;;;;5050300;28;19973;-56
2020/12/12 00:42:35;;;;;;;;;;;18.40;48.50;;;;;;5050584;28;20108;-55
2020/12/12 00:45:02;;;;;;;59.75;11.13;;;18.30;48.90;;;;;;5052616;28;20015;-56
2020/12/12 00:47:29;;;;;;;45.97;10.50;;;18.20;48.90;;;;;;5053557;28;20124;-57
2020/12/12 00:49:55;;;;;;;42.00;9.23;;;18.10;49.00;;;;;;5054882;28;20069;-58
2020/12/12 00:52:21;;;;;;;;;;;18.00;49.20;;;;;;5048797;28;20077;-55
2020/12/12 00:54:48;;;;;;;34.00;9.57;;;18.00;49.50;;;;;;5050786;28;19988;-58
2020/12/12 00:57:14;;;;;;;;;;;17.90;49.80;;;;;;5048309;28;20074;-58
2020/12/12 00:59:40;;;;;;;41.78;10.13;;;17.70;50.20;;;;;;5052958;28;19961;-59
2020/12/12 01:02:07;;;;;;;37.38;11.02;;;17.70;50.40;;;;;;5050345;28;20467;-61
2020/12/12 01:04:34;;;;;;;38.13;10.40;;;17.60;50.70;;;;;;5052243;28;20549;-56
2020/12/12 01:07:00;;;;;;;;;;;17.60;51.00;;;;;;5038247;28;20123;-59
2020/12/12 01:09:26;;;;;;;47.53;17.30;;;17.50;51.20;;;;;;5050160;28;20052;-60
2020/12/12 01:11:55;;;;;;;62.05;19.63;;;17.40;51.70;;;;;;5036350;28;20074;-56
2020/12/12 01:14:22;;;;;;;65.32;21.08;;;17.30;52.30;;;;;;5046012;28;20128;-56
2020/12/12 01:16:50;;;;;;;66.88;20.77;;;17.20;52.70;;;;;;5050086;28;20077;-60
2020/12/12 01:19:16;;;;;;;69.00;22.95;;;17.10;52.90;;;;;;5047550;28;20101;-58
2020/12/12 01:21:43;;;;;;;;;;;17.10;53.50;;;;;;5054903;28;20085;-59
2020/12/12 01:24:09;;;;;;;69.03;19.65;;;17.00;53.90;;;;;;5053597;28;19964;-58
2020/12/12 01:26:35;;;;;;;;;;;17.00;54.10;;;;;;5057122;28;20437;-59
2020/12/12 01:29:02;;;;;;;58.33;17.90;;;16.90;54.20;;;;;;5053012;28;20075;-60
2020/12/12 01:31:28;;;;;;;70.75;19.27;;;16.80;54.30;;;;;;5054384;28;20105;-61
2020/12/12 01:33:55;;;;;;;68.03;20.98;;;16.80;54.50;;;;;;5056147;28;20128;-56
2020/12/12 01:36:21;;;;;;;;;;;16.70;54.80;;;;;;5054748;28;20166;-60
2020/12/12 01:38:47;;;;;;;60.90;16.67;;;16.60;55.40;;;;;;5055846;28;20001;-59
2020/12/12 01:41:16;;;;;;;54.70;16.38;;;16.60;55.70;;;;;;5050864;28;20074;-59
2020/12/12 01:43:50;;;;;;;62.60;16.98;;;16.50;55.80;;;;;;5056072;28;20622;-60
2020/12/12 01:46:23;;;;;;;58.88;16.70;;;16.50;56.60;;;;;;5052458;28;20161;-60
2020/12/12 01:48:53;;;;;;;64.50;17.10;;;16.40;56.60;;;;;;5053134;28;20066;-57
2020/12/12 01:51:26;;;;;;;56.63;17.60;;;16.30;56.90;;;;;;5062041;28;20434;-58
2020/12/12 01:53:56;;;;;;;59.88;16.52;;;16.30;57.60;;;;;;5054815;28;20074;-58
2020/12/12 01:56:23;;;;;;;71.60;15.68;;;16.20;57.90;;;;;;5055685;28;20072;-58
2020/12/12 01:58:52;;;;;;;104.45;17.00;;;16.20;58.00;;;;;;5049540;28;20076;-58
2020/12/12 02:01:22;;;;;;;79.43;18.83;;;16.20;58.40;;;;;;5053355;28;20165;-61
2020/12/12 02:03:51;;;;;;;72.88;17.25;;;16.10;58.60;;;;;;5055369;28;20545;-61
2020/12/12 02:06:19;;;;;;;86.78;17.35;;;16.10;59.00;;;;;;5052190;28;20071;-60
2020/12/12 02:08:49;;;;;;;68.30;16.58;;;16.10;59.00;;;;;;5057271;28;20074;-60
2020/12/12 02:11:18;;;;;;;83.43;16.98;;;15.90;58.60;;;;;;5057594;28;20123;-58
2020/12/12 02:13:46;;;;;;;63.97;15.63;;;15.80;58.80;;;;;;5056904;28;20072;-62
2020/12/12 02:16:15;;;;;;;131.85;21.02;;;15.80;59.00;;;;;;5060234;28;20077;-63
2020/12/12 02:18:42;;;;;;;217.43;23.40;;;15.80;59.50;;;;;;5058396;28;20176;-64
2020/12/12 02:21:09;;;;;;;72.40;16.42;;;15.80;60.00;;;;;;5056241;28;20081;-59
2020/12/12 02:23:36;;;;;;;79.32;17.27;;;15.80;60.20;;;;;;5061235;28;20530;-61
2020/12/12 02:26:03;;;;;;;81.10;16.17;;;15.70;60.30;;;;;;5040635;28;20081;-61
2020/12/12 02:28:43;;;;;;;68.38;16.60;;;15.70;60.80;;;;;;5059147;28;20116;-56
2020/12/12 02:31:09;;;;;;;71.57;17.90;;;15.60;60.50;;;;;;5065118;28;20071;-61
2020/12/12 02:33:38;;;;;;;;;;;15.50;60.20;;;;;;5050297;28;20072;-58
2020/12/12 02:36:06;;;;;;;51.92;17.23;;;15.50;60.40;;;;;;5068980;28;20416;-59
2020/12/12 02:38:33;;;;;;;51.25;16.27;;;15.50;60.80;;;;;;5051970;28;20085;-61
2020/12/12 02:40:59;;;;;;;61.42;18.67;;;15.40;61.30;;;;;;5066585;28;20077;-60
2020/12/12 02:43:26;;;;;;;63.88;17.35;;;15.30;61.90;;;;;;5061804;28;20154;-57
2020/12/12 02:45:52;;;;;;;;;;;15.30;62.00;;;;;;5069548;28;20432;-57
2020/12/12 02:48:19;;;;;;;71.57;18.15;;;15.20;62.00;;;;;;5063731;28;20014;-59
2020/12/12 02:50:45;;;;;;;;;;;15.10;62.90;;;;;;5057606;28;20066;-59
2020/12/12 02:53:11;;;;;;;62.25;17.70;;;15.10;63.40;;;;;;5058595;28;19987;-59
2020/12/12 02:55:38;;;;;;;73.35;19.63;;;15.10;63.20;;;;;;5069774;28;20085;-59
2020/12/12 02:58:04;;;;;;;;;;;14.90;63.30;;;;;;5069822;28;20073;-60
2020/12/12 03:00:32;;;;;;;73.00;22.33;;;14.90;63.60;;;;;;5067188;28;19961;-60
2020/12/12 03:02:58;;;;;;;70.53;21.08;;;14.90;64.10;;;;;;5071896;28;20097;-58
2020/12/12 03:05:25;;;;;;;;;;;14.90;64.30;;;;;;5069162;28;20103;-54
2020/12/12 03:07:54;;;;;;;82.97;22.23;;;14.90;64.40;;;;;;5069854;28;20007;-58
2020/12/12 03:10:20;;;;;;;84.00;22.35;;;14.90;64.80;;;;;;5067541;28;20118;-58
2020/12/12 03:12:46;;;;;;;;;;;14.80;65.20;;;;;;5068416;28;20079;-58
2020/12/12 03:15:13;;;;;;;77.53;20.60;;;14.80;65.00;;;;;;5067045;28;19956;-55
2020/12/12 03:17:39;;;;;;;;;;;14.70;64.90;;;;;;5067907;28;20085;-58
2020/12/12 03:20:07;;;;;;;83.72;21.38;;;14.70;65.20;;;;;;5056227;28;19957;-59
2020/12/12 03:22:35;;;;;;;110.28;43.95;;;14.70;65.50;;;;;;5067153;28;20112;-57
2020/12/12 03:25:02;;;;;;;101.90;36.40;;;14.60;65.80;;;;;;5065374;28;20073;-58
2020/12/12 03:27:29;;;;;;;78.30;23.58;;;14.70;65.80;;;;;;5064485;28;20169;-58
2020/12/12 03:29:55;;;;;;;82.38;23.23;;;14.70;66.50;;;;;;5053250;28;20105;-58
2020/12/12 03:32:21;;;;;;;;;;;14.60;66.60;;;;;;5069147;28;20105;-58
2020/12/12 03:34:50;;;;;;;84.05;26.42;;;14.60;67.00;;;;;;5064932;28;19970;-55
2020/12/12 03:37:16;;;;;;;89.82;26.85;;;14.50;67.00;;;;;;5068775;28;20152;-59
2020/12/12 03:39:43;;;;;;;83.20;26.30;;;14.40;68.00;;;;;;5067279;28;20092;-59
2020/12/12 03:42:09;;;;;;;81.35;27.15;;;14.40;67.50;;;;;;5067835;28;20099;-54
2020/12/12 03:44:36;;;;;;;;;;;14.30;67.60;;;;;;5035266;28;20103;-59
2020/12/12 03:47:02;;;;;;;79.57;26.90;;;14.30;68.10;;;;;;5066115;28;20051;-59
2020/12/12 03:49:29;;;;;;;70.10;26.92;;;14.20;68.20;;;;;;5050518;28;20076;-60
2020/12/12 03:51:55;;;;;;;;;;;14.10;68.50;;;;;;5066997;28;20073;-57
2020/12/12 03:54:22;;;;;;;149.57;63.60;;;14.10;68.50;;;;;;5064431;28;20411;-61
2020/12/12 03:56:48;;;;;;;;;;;14.10;68.60;;;;;;5070071;28;20085;-58
2020/12/12 03:59:14;;;;;;;159.57;71.20;;;14.10;69.10;;;;;;5067171;28;19964;-57
2020/12/12 04:01:41;;;;;;;186.15;79.18;;;14.10;69.40;;;;;;5067498;28;20103;-61
2020/12/12 04:04:07;;;;;;;171.35;76.35;;;14.10;69.20;;;;;;5068329;28;20093;-59
2020/12/12 04:06:34;;;;;;;;;;;14.00;68.90;;;;;;5068065;28;20069;-59
2020/12/12 04:09:00;;;;;;;151.13;66.10;;;14.00;69.10;;;;;;5083568;28;19994;-59
2020/12/12 04:11:26;;;;;;;;;;;13.90;69.80;;;;;;5067595;28;20073;-59
2020/12/12 04:13:53;;;;;;;168.32;77.13;;;13.90;70.00;;;;;;5065046;28;20131;-59
2020/12/12 04:16:20;;;;;;;137.82;72.05;;;13.80;70.10;;;;;;5067859;28;21037;-58
2020/12/12 04:18:46;;;;;;;142.95;66.70;;;13.80;70.30;;;;;;5066457;28;20081;-57
2020/12/12 04:21:13;;;;;;;121.43;58.33;;;13.90;70.40;;;;;;5068757;28;20196;-59
2020/12/12 04:23:43;;;;;;;126.20;59.42;;;13.90;70.80;;;;;;5067275;28;20554;-57
2020/12/12 04:26:12;;;;;;;123.22;61.85;;;13.80;70.90;;;;;;5068066;28;20156;-58
2020/12/12 04:28:42;;;;;;;119.93;49.75;;;13.70;71.10;;;;;;5051019;28;20589;-58
2020/12/12 04:31:09;;;;;;;98.28;40.95;;;13.70;71.70;;;;;;5029950;28;20538;-58
2020/12/12 04:33:36;;;;;;;105.25;37.15;;;13.80;71.20;;;;;;5047671;28;20092;-59
2020/12/12 04:36:06;;;;;;;107.25;34.70;;;13.80;71.20;;;;;;5045518;28;20096;-59
2020/12/12 04:38:35;;;;;;;84.70;30.98;;;13.90;71.10;;;;;;5046502;28;20132;-59
2020/12/12 04:41:02;;;;;;;98.50;29.48;;;13.80;70.90;;;;;;5050334;28;20088;-59
2020/12/12 04:43:31;;;;;;;93.93;29.50;;;13.80;70.90;;;;;;5031142;28;20112;-56
2020/12/12 04:45:59;;;;;;;105.57;30.50;;;13.80;71.00;;;;;;5045435;28;20065;-59
2020/12/12 04:48:26;;;;;;;86.90;29.60;;;13.90;70.70;;;;;;5048261;28;20077;-56
2020/12/12 04:50:55;;;;;;;99.05;31.63;;;13.90;70.40;;;;;;5047881;28;20142;-58
2020/12/12 04:53:26;;;;;;;78.50;29.98;;;13.80;70.60;;;;;;5048006;28;20077;-54
2020/12/12 04:55:56;;;;;;;90.38;29.77;;;13.70;71.00;;;;;;5047645;28;20069;-59
2020/12/12 04:58:24;;;;;;;90.32;28.27;;;13.60;71.10;;;;;;5048482;28;20478;-59
2020/12/12 05:00:52;;;;;;;86.65;25.35;;;13.60;71.10;;;;;;5033759;28;20093;-58
2020/12/12 05:03:21;;;;;;;74.50;22.70;;;13.60;71.50;;;;;;5052547;28;20101;-56
2020/12/12 05:05:48;;;;;;;81.97;24.42;;;13.60;71.80;;;;;;5054196;28;20493;-59
2020/12/12 05:08:15;;;;;;;81.07;25.23;;;13.60;72.00;;;;;;5051998;28;20074;-57
2020/12/12 05:10:43;;;;;;;81.47;22.80;;;13.60;72.50;;;;;;5049561;28;20116;-59
2020/12/12 05:13:17;;;;;;;72.82;21.98;;;13.60;72.70;;;;;;5052157;28;20509;-57
2020/12/12 05:15:45;;;;;;;64.75;20.98;;;13.60;72.70;;;;;;5033785;28;20112;-56
2020/12/12 05:18:11;;;;;;;82.60;22.38;;;13.60;72.50;;;;;;5050318;28;20533;-57
2020/12/12 05:20:39;;;;;;;65.53;21.55;;;13.60;72.20;;;;;;5052947;28;20108;-55
2020/12/12 05:23:16;;;;;;;68.10;21.48;;;13.50;72.20;;;;;;5052342;28;20154;-57
2020/12/12 05:25:44;;;;;;;77.50;21.80;;;13.40;72.80;;;;;;5050816;28;20123;-55
2020/12/12 05:28:13;;;;;;;68.68;21.75;;;13.30;73.20;;;;;;5066881;28;20105;-59
2020/12/12 05:30:42;;;;;;;84.10;21.67;;;13.30;73.30;;;;;;5073767;28;20565;-60
2020/12/12 05:33:11;;;;;;;85.40;22.90;;;13.40;73.30;;;;;;5071513;28;20092;-58
2020/12/12 05:35:38;;;;;;;88.70;23.80;;;13.30;73.40;;;;;;5069550;28;20065;-59
2020/12/12 05:38:07;;;;;;;89.25;25.08;;;13.30;73.20;;;;;;5073364;28;20125;-60
2020/12/12 05:40:35;;;;;;;60.80;22.83;;;13.30;73.20;;;;;;5072308;28;21597;-57
2020/12/12 05:43:08;;;;;;;75.05;25.20;;;13.20;73.40;;;;;;5069229;28;20246;-58
2020/12/12 05:45:35;;;;;;;74.40;24.50;;;13.10;73.10;;;;;;5071612;28;20168;-58
2020/12/12 05:48:02;;;;;;;79.70;26.15;;;13.10;73.50;;;;;;5077273;28;20414;-59
2020/12/12 05:50:29;;;;;;;87.18;25.27;;;13.10;74.00;;;;;;5078820;28;20417;-58
2020/12/12 05:52:55;;;;;;;;;;;13.10;74.80;;;;;;5052428;28;20073;-56
2020/12/12 05:55:26;;;;;;;69.97;25.88;;;13.00;74.40;;;;;;5070931;28;20412;-55
2020/12/12 05:57:53;;;;;;;80.65;24.85;;;13.00;74.40;;;;;;5070948;28;20074;-55
2020/12/12 06:00:21;;;;;;;73.03;25.05;;;13.00;74.90;;;;;;5060858;28;20163;-59
2020/12/12 06:03:05;;;;;;;87.72;23.38;;;13.00;75.30;;;;;;5069045;28;20177;-59
2020/12/12 06:05:36;;;;;;;79.88;24.58;;;13.00;75.30;;;;;;5069454;28;20068;-57
2020/12/12 06:08:05;;;;;;;77.50;23.52;;;12.90;75.50;;;;;;5050830;28;20085;-57
2020/12/12 06:10:34;;;;;;;68.82;24.85;;;12.90;75.70;;;;;;5062847;28;20101;-56
2020/12/12 06:13:06;;;;;;;64.43;23.65;;;12.90;76.40;;;;;;5069023;28;20091;-59
2020/12/12 06:15:41;;;;;;;70.50;23.23;;;12.90;76.50;;;;;;5074827;28;20068;-59
2020/12/12 06:18:27;;;;;;;68.75;23.65;;;12.80;76.30;;;;;;5065513;28;20466;-55
2020/12/12 06:20:55;;;;;;;87.20;28.20;;;12.80;76.80;;;;;;5073241;28;20080;-59
2020/12/12 06:23:21;;;;;;;82.70;28.27;;;12.60;77.50;;;;;;5067303;28;20554;-59
2020/12/12 06:25:48;;;;;;;87.53;27.77;;;12.50;78.80;;;;;;5067097;28;20057;-58
2020/12/12 06:28:16;;;;;;;;;;;12.70;77.00;;;;;;5055059;28;20451;-59
2020/12/12 06:30:44;;;;;;;88.78;31.80;;;12.70;77.00;;;;;;5048844;28;19958;-58
2020/12/12 06:33:11;;;;;;;97.75;41.15;;;12.70;77.20;;;;;;5047692;28;20164;-60
2020/12/12 06:35:40;;;;;;;155.43;37.40;;;12.60;77.60;;;;;;5050190;28;20085;-60
2020/12/12 06:38:28;;;;;;;109.05;31.85;;;12.70;78.40;;;;;;5052167;28;20093;-53
2020/12/12 06:40:59;;;;;;;89.28;30.92;;;12.70;78.60;;;;;;5047013;28;20587;-55
2020/12/12 06:43:37;;;;;;;80.75;28.98;;;12.50;85.00;;;;;;5049639;28;20094;-58
2020/12/12 06:46:06;;;;;;;74.72;26.92;;;12.60;78.70;;;;;;5046987;28;20088;-59
2020/12/12 06:48:34;;;;;;;70.10;28.45;;;12.60;78.70;;;;;;5046314;28;20069;-58
2020/12/12 06:51:03;;;;;;;68.85;28.02;;;12.60;78.80;;;;;;5050271;28;20216;-55
2020/12/12 06:53:31;;;;;;;80.25;29.33;;;12.60;78.90;;;;;;5047411;28;20150;-58
2020/12/12 06:56:14;;;;;;;71.82;29.75;;;12.60;79.40;;;;;;5031977;28;20081;-59
2020/12/12 06:58:45;;;;;;;72.55;29.52;;;12.50;80.30;;;;;;5031617;28;20077;-57
2020/12/12 07:01:32;;;;;;;83.68;30.08;;;12.40;80.50;;;;;;5048596;28;20084;-58
2020/12/12 07:04:04;;;;;;;80.78;33.05;;;12.40;80.90;;;;;;5049790;28;20196;-58
2020/12/12 07:06:32;;;;;;;73.43;31.55;;;12.40;82.40;;;;;;5047905;28;20445;-58
2020/12/12 07:09:08;;;;;;;74.57;32.40;;;12.30;83.30;;;;;;5047698;28;20081;-59
2020/12/12 07:11:35;;;;;;;67.97;31.43;;;12.30;84.40;;;;;;5032220;28;20081;-58
2020/12/12 07:14:03;;;;;;;76.10;30.95;;;12.30;87.20;;;;;;5047599;28;20374;-55
2020/12/12 07:16:30;;;;;;;77.95;30.35;;;12.20;88.10;;;;;;5048502;28;20070;-55
2020/12/12 07:18:57;;;;;;;76.15;31.33;;;12.20;88.60;;;;;;5046669;28;20130;-59
2020/12/12 07:21:24;;;;;;;85.47;31.00;;;12.20;90.20;;;;;;5048997;28;20096;-57
2020/12/12 07:23:50;;;;;;;;;;;12.10;90.00;;;;;;5049523;28;20098;-54
2020/12/12 07:26:17;;;;;;;71.30;27.88;;;12.00;90.90;;;;;;5048794;28;20437;-58
2020/12/12 07:28:44;;;;;;;69.18;27.45;;;12.10;92.10;;;;;;5065972;28;20127;-58
2020/12/12 07:31:10;;;;;;;73.40;28.73;;;12.00;92.40;;;;;;5068601;28;20077;-59
2020/12/12 07:33:37;;;;;;;82.45;28.77;;;12.00;92.40;;;;;;5065319;28;20077;-57
2020/12/12 07:36:05;;;;;;;75.60;28.52;;;12.00;92.40;;;;;;5067385;28;20074;-57
2020/12/12 07:38:39;;;;;;;98.55;30.58;;;12.00;92.10;;;;;;5069365;28;20077;-58
2020/12/12 07:41:12;;;;;;;90.00;30.73;;;12.00;91.90;;;;;;5068378;28;20087;-56
2020/12/12 07:44:07;;;;;;;97.93;34.17;;;12.10;91.70;;;;;;5065643;28;20549;-58
2020/12/12 07:46:40;;;;;;;97.20;37.13;;;12.00;91.20;;;;;;5056042;28;20097;-54
2020/12/12 07:49:10;;;;;;;137.35;47.47;;;12.00;91.30;;;;;;5067524;28;20119;-58
2020/12/12 07:51:36;;;;;;;135.80;52.90;;;11.90;91.40;;;;;;5067261;28;20066;-56
2020/12/12 07:54:17;;;;;;;151.93;59.25;;;11.90;91.40;;;;;;5066882;28;20105;-57
2020/12/12 07:56:54;;;;;;;161.13;61.15;;;12.00;91.00;;;;;;5066073;28;20081;-57
2020/12/12 07:59:21;;;;;;;140.77;58.90;;;12.00;90.90;;;;;;5065939;28;20103;-58
2020/12/12 08:01:51;;;;;;;150.77;56.92;;;12.00;90.70;;;;;;5030776;28;20103;-55
2020/12/12 08:04:26;;;;;;;149.23;58.95;;;12.00;90.50;;;;;;5067069;28;20465;-57
2020/12/12 08:06:52;;;;;;;133.10;59.35;;;12.00;90.20;;;;;;5067121;28;20110;-58
2020/12/12 08:09:23;;;;;;;;;;;12.00;89.90;;;;;;5047426;28;20129;-54
2020/12/12 08:12:00;;;;;;;133.75;58.00;;;11.90;89.50;;;;;;5068296;28;20001;-55
2020/12/12 08:14:30;;;;;;;130.40;54.95;;;11.70;89.30;;;;;;5050204;28;20072;-55
2020/12/12 08:16:59;;;;;;;143.88;56.20;;;11.80;89.40;;;;;;5069476;28;20092;-58
2020/12/12 08:19:28;;;;;;;137.23;56.83;;;11.80;89.10;;;;;;5066061;28;20081;-56
2020/12/12 08:22:17;;;;;;;157.52;58.42;;;11.80;88.70;;;;;;5066616;28;20139;-55
2020/12/12 08:24:44;;;;;;;139.37;59.70;;;11.80;87.70;;;;;;5068108;28;20556;-57
2020/12/12 08:27:21;;;;;;;160.25;61.45;;;11.70;89.10;;;;;;5069056;28;20114;-54
2020/12/12 08:29:56;;;;;;;136.02;59.33;;;11.70;87.00;;;;;;5068430;28;20073;-59
2020/12/12 08:32:30;;;;;;;153.60;57.78;;;11.70;86.00;;;;;;5066057;28;20099;-57
2020/12/12 08:35:25;;;;;;;136.82;60.63;;;12.00;95.00;;;;;;5072312;28;20126;-56
2020/12/12 08:37:51;;;;;;;157.52;62.55;;;12.20;99.80;;;;;;5073091;28;20077;-57
2020/12/12 08:40:18;;;;;;;154.07;65.03;;;11.70;96.60;;;;;;5075001;28;20066;-58
2020/12/12 08:43:05;;;;;;;158.07;62.83;;;11.60;87.40;;;;;;5089708;28;20096;-58
2020/12/12 08:45:38;;;;;;;132.80;57.83;;;11.60;85.80;;;;;;5057442;28;20081;-58
2020/12/12 08:48:07;;;;;;;137.00;55.10;;;11.60;84.90;;;;;;5075038;28;20073;-59
2020/12/12 08:50:49;;;;;;;146.10;54.30;;;11.60;84.10;;;;;;5074143;28;20103;-57
2020/12/12 08:53:22;;;;;;;141.27;60.75;;;11.50;84.60;;;;;;5072828;28;20088;-58
2020/12/12 08:56:09;;;;;;;138.05;56.08;;;11.50;85.30;;;;;;5073361;28;20101;-56
2020/12/12 08:58:43;;;;;;;121.90;51.73;;;11.50;84.30;;;;;;5074402;28;20115;-58
2020/12/12 09:01:15;;;;;;;120.35;43.90;;;11.60;83.70;;;;;;5073200;28;20308;-55
2020/12/12 09:04:05;;;;;;;114.18;43.42;;;11.60;81.70;;;;;;5071774;28;20129;-56
2020/12/12 09:06:35;;;;;;;106.63;42.53;;;11.60;81.50;;;;;;5074046;28;20082;-57
2020/12/12 09:09:05;;;;;;;109.97;42.92;;;11.60;81.50;;;;;;5074979;28;20116;-56
2020/12/12 09:11:32;;;;;;;108.47;43.05;;;11.50;81.50;;;;;;5072499;28;20112;-58
2020/12/12 09:13:59;;;;;;;119.40;45.58;;;11.40;81.70;;;;;;5057861;28;20084;-54
2020/12/12 09:16:26;;;;;;;110.00;43.53;;;11.40;82.50;;;;;;5073942;28;20069;-58
2020/12/12 09:18:53;;;;;;;121.28;46.67;;;11.40;82.40;;;;;;5072535;28;20534;-56
2020/12/12 09:21:20;;;;;;;108.38;43.13;;;11.40;82.30;;;;;;5073218;28;20082;-57
2020/12/12 09:23:46;;;;;;;113.85;44.85;;;11.30;82.20;;;;;;5073241;28;20119;-55
2020/12/12 09:26:13;;;;;;;108.93;45.08;;;11.30;82.50;;;;;;5071661;28;20101;-57
2020/12/12 09:28:40;;;;;;;110.13;46.67;;;11.30;82.00;;;;;;5071580;28;20112;-56
2020/12/12 09:31:06;;;;;;;;;;;11.30;81.90;;;;;;5073958;28;20069;-53
2020/12/12 09:33:33;;;;;;;111.13;49.90;;;11.30;82.40;;;;;;5072010;28;20008;-55
2020/12/12 09:35:59;;;;;;;109.88;45.92;;;11.20;82.80;;;;;;5072809;28;20092;-57
2020/12/12 09:38:26;;;;;;;111.20;43.15;;;11.20;82.30;;;;;;5073654;28;20080;-53
2020/12/12 09:40:52;;;;;;;;;;;11.20;81.80;;;;;;5075525;28;20077;-57
2020/12/12 09:43:21;;;;;;;98.55;42.28;;;11.20;81.50;;;;;;5057305;28;19981;-58
2020/12/12 09:45:48;;;;;;;108.10;42.25;;;11.20;81.60;;;;;;5071255;28;20069;-55
2020/12/12 09:48:15;;;;;;;109.97;41.47;;;11.20;81.50;;;;;;5069578;28;20181;-58
2020/12/12 09:50:42;;;;;;;120.88;42.33;;;11.10;80.60;;;;;;5071807;28;20081;-54
2020/12/12 09:53:10;;;;;;;100.65;42.90;;;11.00;81.40;;;;;;5071247;28;20137;-56
2020/12/12 09:55:39;;;;;;;100.32;42.30;;;11.00;81.80;;;;;;5068724;28;20110;-56
2020/12/12 09:58:09;;;;;;;122.25;43.72;;;11.10;81.40;;;;;;5071870;28;20065;-58
2020/12/12 10:00:40;;;;;;;109.03;41.70;;;11.00;81.20;;;;;;5070485;28;20073;-55
2020/12/12 10:03:07;;;;;;;110.63;43.58;;;11.00;81.60;;;;;;5069786;28;20153;-56
2020/12/12 10:05:34;;;;;;;99.35;44.05;;;11.00;81.80;;;;;;5069799;28;20445;-55
2020/12/12 10:08:02;;;;;;;112.68;45.80;;;11.00;81.70;;;;;;5069517;28;20203;-52
2020/12/12 10:10:31;;;;;;;111.00;45.28;;;;;;;;;;5068840;28;20114;-53
2020/12/12 10:12:58;;;;;;;99.68;43.72;;;10.90;81.60;;;;;;5070285;28;20216;-56
2020/12/12 10:15:25;;;;;;;111.47;45.22;;;10.90;82.00;;;;;;5068286;28;20157;-54
2020/12/12 10:17:55;;;;;;;109.40;45.60;;;10.90;81.90;;;;;;5068663;28;20430;-58
2020/12/12 10:20:22;;;;;;;124.53;48.60;;;10.80;81.70;;;;;;5053340;28;20518;-57
2020/12/12 10:22:50;;;;;;;113.10;45.78;;;10.90;81.70;;;;;;5067685;28;20456;-56
2020/12/12 10:25:18;;;;;;;114.15;46.45;;;10.80;82.00;;;;;;5069479;28;20069;-57
2020/12/12 10:27:44;;;;;;;116.13;46.20;;;10.70;82.00;;;;;;5070515;28;20202;-57
2020/12/12 10:30:11;;;;;;;;;;;10.70;82.00;;;;;;5069960;28;20161;-57
2020/12/12 10:32:38;;;;;;;114.50;45.92;;;10.70;82.10;;;;;;5067437;28;19988;-59
2020/12/12 10:35:07;;;;;;;;;;;10.60;82.80;;;;;;5071256;28;20460;-59
2020/12/12 10:37:34;;;;;;;107.30;45.03;;;10.50;82.60;;;;;;5068344;28;19957;-56
2020/12/12 10:40:14;;;;;;;107.82;44.83;;;10.50;83.00;;;;;;5069024;28;20096;-56
2020/12/12 10:42:41;;;;;;;106.05;41.72;;;10.50;83.20;;;;;;5069940;28;20553;-59
2020/12/12 10:45:08;;;;;;;102.63;43.00;;;10.50;82.90;;;;;;5069425;28;20651;-59
2020/12/12 10:47:35;;;;;;;109.72;43.38;;;10.60;82.90;;;;;;5069210;28;20152;-57
2020/12/12 10:50:01;;;;;;;;;;;10.50;82.70;;;;;;5068919;28;20077;-56
2020/12/12 10:52:28;;;;;;;108.18;42.72;;;10.50;82.60;;;;;;5067283;28;19968;-53
2020/12/12 10:54:54;;;;;;;;;;;10.40;82.60;;;;;;5067459;28;20073;-56
2020/12/12 10:57:20;;;;;;;105.85;37.80;;;10.40;83.60;;;;;;5065050;28;19957;-57
2020/12/12 10:59:47;;;;;;;;;;;10.40;83.60;;;;;;5069937;28;20080;-56
2020/12/12 11:02:14;;;;;;;89.25;37.63;;;10.30;83.70;;;;;;5067594;28;19976;-57
2020/12/12 11:04:41;;;;;;;99.80;38.30;;;10.30;84.10;;;;;;5067517;28;20144;-55
2020/12/12 11:07:08;;;;;;;85.60;38.03;;;10.30;83.70;;;;;;5068215;28;20142;-56
2020/12/12 11:09:35;;;;;;;93.70;38.40;;;10.40;83.70;;;;;;5066656;28;20517;-55
2020/12/12 11:12:02;;;;;;;107.65;41.08;;;10.40;83.50;;;;;;5070282;28;20449;-54
2020/12/12 11:14:31;;;;;;;88.10;39.53;;;10.40;83.60;;;;;;5070113;28;20069;-55
2020/12/12 11:16:57;;;;;;;83.97;36.80;;;10.40;83.50;;;;;;5070254;28;20529;-57
2020/12/12 11:19:23;;;;;;;;;;;10.40;82.90;;;;;;5069718;28;20069;-55
2020/12/12 11:21:53;;;;;;;95.05;39.95;;;10.50;82.80;;;;;;5068217;28;19963;-57
2020/12/12 11:24:20;;;;;;;92.32;39.30;;;10.50;82.70;;;;;;5069154;28;20083;-58
2020/12/12 11:26:47;;;;;;;83.85;37.28;;;10.50;82.40;;;;;;5035306;28;20136;-56
2020/12/12 11:29:14;;;;;;;90.53;40.60;;;10.40;82.60;;;;;;5066620;28;20074;-56
2020/12/12 11:31:44;;;;;;;101.85;38.17;;;10.40;83.40;;;;;;5049557;28;20084;-56
2020/12/12 11:37:04;;;;;;;89.93;37.78;;;10.40;82.40;;;;;;5067222;28;20073;-53
2020/12/12 11:46:50;;;;;;;;;;;10.40;82.20;;;;;;5052525;28;20123;-53
2020/12/12 11:49:20;;;;;;;98.72;35.78;;;10.30;82.50;;;;;;5066996;28;20047;-55
2020/12/12 11:51:46;;;;;;;92.38;37.78;;;10.30;81.90;;;;;;5036066;28;20522;-57
2020/12/12 11:54:13;;;;;;;97.80;38.63;;;10.30;81.80;;;;;;5067215;28;20077;-54
2020/12/12 11:56:40;;;;;;;91.80;37.67;;;10.40;81.70;;;;;;5065370;28;20083;-55
2020/12/12 11:59:06;;;;;;;;;;;10.30;81.70;;;;;;5067835;28;20084;-55
2020/12/12 12:01:32;;;;;;;84.97;37.80;;;10.30;81.40;;;;;;5082153;28;20314;-54
2020/12/12 12:03:59;;;;;;;94.32;37.47;;;10.30;81.50;;;;;;5049397;28;20109;-55
2020/12/12 12:06:25;;;;;;;89.78;38.08;;;10.30;81.90;;;;;;5066692;28;20152;-55
2020/12/12 12:11:31;;;;;;;90.82;36.60;;;10.20;81.90;;;;;;5068401;28;19980;-53
2020/12/12 12:13:58;;;;;;;86.28;38.00;;;10.20;82.40;;;;;;5069188;28;20147;-57
2020/12/12 12:16:25;;;;;;;88.72;35.58;;;10.20;82.40;;;;;;5068138;28;20069;-56
2020/12/12 12:18:52;;;;;;;91.80;37.40;;;10.20;82.90;;;;;;5069416;28;20077;-53
2020/12/12 12:21:18;;;;;;;;;;;10.20;83.40;;;;;;5067402;28;20078;-55
2020/12/12 12:23:44;;;;;;;88.68;36.72;;;10.20;82.90;;;;;;5066038;28;19977;-54
2020/12/12 12:26:13;;;;;;;;;;;10.20;82.80;;;;;;5069634;28;20091;-54
2020/12/12 12:28:40;;;;;;;88.85;36.85;;;10.20;83.00;;;;;;5069311;28;20388;-55
2020/12/12 12:31:07;;;;;;;83.00;36.20;;;10.20;82.70;;;;;;5051000;28;20109;-56
2020/12/12 12:33:33;;;;;;;;;;;10.10;82.50;;;;;;5069591;28;20152;-58
2020/12/12 12:36:00;;;;;;;88.05;35.90;;;10.20;82.70;;;;;;5068841;28;20075;-58
2020/12/12 12:38:26;;;;;;;;;;;10.20;82.30;;;;;;5050871;28;20127;-57
2020/12/12 12:40:53;;;;;;;105.22;36.88;;;10.10;81.60;;;;;;5069187;28;19957;-58
2020/12/12 12:43:19;;;;;;;77.78;36.25;;;10.00;81.10;;;;;;5068870;28;20179;-59
2020/12/12 12:45:46;;;;;;;80.97;36.72;;;10.10;81.80;;;;;;5069216;28;20069;-57
2020/12/12 12:48:13;;;;;;;90.78;35.47;;;10.10;82.60;;;;;;5066478;28;20085;-55
2020/12/12 12:50:41;;;;;;;;;;;10.10;82.10;;;;;;5068516;28;20564;-55
2020/12/12 12:53:10;;;;;;;73.88;32.42;;;10.00;82.50;;;;;;5065626;28;20432;-57
2020/12/12 12:55:38;;;;;;;85.72;34.03;;;10.10;82.20;;;;;;5067747;28;20156;-56
2020/12/12 12:58:08;;;;;;;79.25;33.05;;;10.00;81.50;;;;;;5064395;28;20208;-58